createdAt,value
2022-11-28T00:01:26.617Z,93835.00
2022-11-28T00:03:54.356Z,93837.06
2022-11-28T00:06:22.191Z,93835.53
2022-11-28T00:08:49.542Z,93840.16
2022-11-28T00:11:18.184Z,93840.91
2022-11-28T00:13:46.101Z,93835.25
2022-11-28T00:16:18.026Z,93834.44
2022-11-28T00:18:45.722Z,93831.44
2022-11-28T00:21:15.093Z,93831.78
2022-11-28T00:23:43.672Z,93831.78
2022-11-28T00:26:24.296Z,93834.34
2022-11-28T00:28:52.328Z,93833.28
2022-11-28T00:31:23.832Z,93833.16
2022-11-28T00:36:20.248Z,93834.09
2022-11-28T00:38:48.335Z,93832.47
2022-11-28T00:41:19.071Z,93836.34
2022-11-28T00:43:47.587Z,93830.16
2022-11-28T00:46:16.791Z,93827.56
2022-11-28T00:48:44.207Z,93829.88
2022-11-28T00:51:17.786Z,93833.75
2022-11-28T00:53:48.268Z,93833.03
2022-11-28T00:56:19.648Z,93822.94
2022-11-28T00:58:49.910Z,93826.06
2022-11-28T01:01:24.478Z,93829.03
2022-11-28T01:03:54.038Z,93822.00
2022-11-28T01:06:30.117Z,93817.41
2022-11-28T01:09:03.475Z,93825.81
2022-11-28T01:11:31.299Z,93826.97
2022-11-28T01:14:01.475Z,93818.13
2022-11-28T01:16:29.372Z,93821.16
2022-11-28T01:18:57.335Z,93819.66
2022-11-28T01:21:25.474Z,93817.59
2022-11-28T01:23:53.276Z,93829.63
2022-11-28T01:26:24.043Z,93823.16
2022-11-28T01:28:51.890Z,93827.78
2022-11-28T01:31:22.286Z,93818.38
2022-11-28T01:33:50.933Z,93811.78
2022-11-28T01:36:19.401Z,93810.19
2022-11-28T01:38:47.479Z,93807.31
2022-11-28T01:41:16.502Z,93808.75
2022-11-28T01:44:00.940Z,93808.94
2022-11-28T01:46:29.444Z,93802.44
2022-11-28T01:49:03.089Z,93794.97
2022-11-28T01:51:31.943Z,93804.75
2022-11-28T01:54:00.383Z,93800.84
2022-11-28T01:56:33.007Z,93791.81
2022-11-28T01:59:07.722Z,93802.97
2022-11-28T02:01:35.214Z,93794.25
2022-11-28T02:04:04.239Z,93792.78
2022-11-28T02:06:32.790Z,93792.38
2022-11-28T02:09:00.008Z,93788.06
2022-11-28T02:11:52.495Z,93792.47
2022-11-28T02:15:00.250Z,93792.38
2022-11-28T02:17:40.014Z,93787.94
2022-11-28T02:20:19.389Z,93789.37
2022-11-28T02:23:14.466Z,93792.09
2022-11-28T02:26:00.761Z,93792.38
2022-11-28T02:28:38.258Z,93783.53
2022-11-28T02:31:27.427Z,93788.53
2022-11-28T02:34:00.713Z,93783.03
2022-11-28T02:36:33.941Z,93779.16
2022-11-28T02:39:46.004Z,93780.78
2022-11-28T02:42:25.429Z,93777.91
2022-11-28T02:45:02.618Z,93772.94
2022-11-28T02:47:35.988Z,93775.69
2022-11-28T02:50:20.041Z,93771.72
2022-11-28T02:52:52.293Z,93779.38
2022-11-28T02:55:20.702Z,93773.47
2022-11-28T02:57:54.915Z,93775.28
2022-11-28T03:00:33.802Z,93777.03
2022-11-28T03:03:08.559Z,93775.53
2022-11-28T03:05:50.910Z,93778.00
2022-11-28T03:08:32.229Z,93782.37
2022-11-28T03:11:38.304Z,93777.22
2022-11-28T03:14:11.528Z,93783.81
2022-11-28T03:16:57.167Z,93780.53
2022-11-28T03:19:44.547Z,93784.25
2022-11-28T03:22:41.178Z,93787.94
2022-11-28T03:25:28.978Z,93788.19
2022-11-28T03:28:19.407Z,93785.84
2022-11-28T03:31:03.905Z,93788.22
2022-11-28T03:33:37.110Z,93785.25
2022-11-28T03:36:17.134Z,93789.19
2022-11-28T03:38:49.960Z,93792.94
2022-11-28T03:41:24.945Z,93778.03
2022-11-28T03:43:56.974Z,93790.00
2022-11-28T03:46:35.693Z,93787.47
2022-11-28T03:49:07.783Z,93784.44
2022-11-28T03:51:50.416Z,93793.97
2022-11-28T03:54:42.548Z,93790.59
2022-11-28T03:57:35.457Z,93785.59
2022-11-28T04:00:07.579Z,93787.53
2022-11-28T04:03:04.238Z,93784.16
2022-11-28T04:05:45.704Z,93789.50
2022-11-28T04:08:18.564Z,93798.41
2022-11-28T04:11:04.445Z,93792.91
2022-11-28T04:13:42.965Z,93789.41
2022-11-28T04:16:16.871Z,93799.41
2022-11-28T04:19:01.254Z,93800.53
2022-11-28T04:21:50.746Z,93799.41
2022-11-28T04:24:48.275Z,93788.78
2022-11-28T04:27:23.552Z,93791.66
2022-11-28T04:29:57.363Z,93797.44
2022-11-28T04:32:27.171Z,93793.09
2022-11-28T04:35:01.980Z,93795.50
2022-11-28T04:37:32.777Z,93801.62
2022-11-28T04:40:01.279Z,93800.03
2022-11-28T04:42:39.432Z,93802.16
2022-11-28T04:45:22.838Z,93802.28
2022-11-28T04:47:50.382Z,93801.44
2022-11-28T04:50:18.266Z,93802.44
2022-11-28T04:53:03.262Z,93805.00
2022-11-28T04:55:41.026Z,93793.94
2022-11-28T04:58:14.655Z,93800.62
2022-11-28T05:00:43.631Z,93802.00
2022-11-28T05:03:12.185Z,93811.19
2022-11-28T05:05:57.632Z,93802.78
2022-11-28T07:11:16.126Z,93788.50
2022-11-28T07:13:49.146Z,93788.50
2022-11-28T07:16:21.535Z,93788.25
2022-11-28T07:18:49.659Z,93791.00
2022-11-28T07:21:18.143Z,93782.37
2022-11-28T07:23:47.239Z,93787.38
2022-11-28T07:26:19.700Z,93776.88
2022-11-28T07:28:48.000Z,93779.47
2022-11-28T07:31:21.000Z,93789.75
2022-11-28T07:33:50.793Z,93785.44
2022-11-28T07:36:26.919Z,93781.25
2022-11-28T07:38:57.255Z,93792.03
2022-11-28T07:41:27.306Z,93779.97
2022-11-28T07:43:57.169Z,93776.94
2022-11-28T07:46:26.352Z,93779.19
2022-11-28T07:48:53.981Z,93777.97
2022-11-28T07:51:24.824Z,93784.19
2022-11-28T07:53:52.962Z,93772.56
2022-11-28T07:56:31.941Z,93782.31
2022-11-28T07:59:07.742Z,93782.37
2022-11-28T08:01:36.315Z,93776.94
2022-11-28T08:04:09.256Z,93777.66
2022-11-28T08:06:40.368Z,93779.34
2022-11-28T08:09:09.069Z,93773.81
2022-11-28T08:11:36.590Z,93776.31
2022-11-28T08:14:05.227Z,93783.38
2022-11-28T08:16:33.337Z,93775.16
2022-11-28T08:19:02.419Z,93771.06
2022-11-28T08:21:32.737Z,93768.91
2022-11-28T08:24:02.495Z,93774.72
2022-11-28T08:26:32.026Z,93776.41
2022-11-28T08:29:01.111Z,93775.50
2022-11-28T08:31:31.398Z,93773.28
2022-11-28T08:34:00.731Z,93767.31
2022-11-28T08:36:29.494Z,93774.91
2022-11-28T08:41:46.972Z,93776.00
2022-11-28T08:44:14.317Z,93767.00
2022-11-28T08:46:41.792Z,93760.28
2022-11-28T08:49:09.398Z,93765.22
2022-11-28T08:51:36.965Z,93757.75
2022-11-28T08:54:04.553Z,93755.50
2022-11-28T08:56:32.520Z,93758.41
2022-11-28T08:59:00.532Z,93757.03
2022-11-28T09:01:28.179Z,93763.31
2022-11-28T09:03:56.855Z,93753.78
2022-11-28T09:06:24.553Z,93756.56
2022-11-28T09:08:52.786Z,93756.91
2022-11-28T09:11:22.287Z,93751.00
2022-11-28T09:13:49.998Z,93742.06
2022-11-28T09:16:17.711Z,93741.09
2022-11-28T09:18:45.606Z,93731.69
2022-11-28T09:21:14.767Z,93729.97
2022-11-28T09:23:43.688Z,93726.72
2022-11-28T09:26:15.491Z,93721.84
2022-11-28T09:28:42.825Z,93718.06
2022-11-28T09:31:12.715Z,93711.53
2022-11-28T09:33:40.962Z,93709.62
2022-11-28T09:36:17.090Z,93705.16
2022-11-28T09:38:44.997Z,93706.91
2022-11-28T09:41:43.403Z,93699.38
2022-11-28T09:44:57.496Z,93697.59
2022-11-28T09:47:28.528Z,93690.72
2022-11-28T09:50:01.330Z,93690.19
2022-11-28T09:52:52.957Z,93682.63
2022-11-28T09:55:23.690Z,93684.50
2022-11-28T09:57:52.760Z,93682.81
2022-11-28T10:00:24.062Z,93681.87
2022-11-28T10:03:03.927Z,93670.00
2022-11-28T10:05:42.338Z,93668.00
2022-11-28T10:08:26.105Z,93671.16
2022-11-28T10:11:10.653Z,93667.91
2022-11-28T10:14:06.744Z,93660.69
2022-11-28T10:16:53.813Z,93657.47
2022-11-28T10:19:54.666Z,93657.84
2022-11-28T10:22:36.075Z,93652.28
2022-11-28T10:25:24.811Z,93656.72
2022-11-28T10:27:52.476Z,93657.13
2022-11-28T10:30:25.170Z,93658.50
2022-11-28T10:33:01.815Z,93650.41
2022-11-28T10:35:42.916Z,93654.19
2022-11-28T10:38:15.065Z,93651.97
2022-11-28T10:41:07.789Z,93657.34
2022-11-28T10:43:44.803Z,93660.09
2022-11-28T10:46:34.816Z,93656.09
2022-11-28T10:49:33.463Z,93650.91
2022-11-28T10:52:06.652Z,93647.81
2022-11-28T10:54:46.210Z,93653.16
2022-11-28T10:57:38.789Z,93643.75
2022-11-28T11:00:15.072Z,93641.25
2022-11-28T11:02:47.924Z,93634.03
2022-11-28T11:05:27.980Z,93629.72
2022-11-28T11:08:24.226Z,93626.53
2022-11-28T11:10:58.142Z,93621.34
2022-11-28T11:13:29.036Z,93625.81
2022-11-28T11:16:03.060Z,93617.59
2022-11-28T11:18:43.029Z,93619.69
2022-11-28T11:21:20.928Z,93611.56
2022-11-28T11:23:50.873Z,93615.56
2022-11-28T11:26:27.554Z,93610.38
2022-11-28T11:28:56.643Z,93601.47
2022-11-28T11:31:29.505Z,93602.44
2022-11-28T11:34:06.205Z,93616.03
2022-11-28T11:36:35.825Z,93610.91
2022-11-28T11:39:25.779Z,93605.78
2022-11-28T11:42:20.098Z,93599.63
2022-11-28T11:44:47.853Z,93608.31
2022-11-28T11:47:15.503Z,93600.09
2022-11-28T11:49:46.197Z,93602.44
2022-11-28T11:52:14.358Z,93599.13
2022-11-28T11:54:56.836Z,93599.13
2022-11-28T11:57:34.693Z,93596.41
2022-11-28T12:00:15.001Z,93589.94
2022-11-28T12:02:58.994Z,93586.28
2022-11-28T12:06:12.687Z,93587.88
2022-11-28T12:08:43.753Z,93594.72
2022-11-28T12:11:15.251Z,93578.19
2022-11-28T12:13:43.257Z,93577.41
2022-11-28T12:16:49.141Z,93580.81
2022-11-28T12:19:29.085Z,93580.03
2022-11-28T12:22:21.278Z,93576.97
2022-11-28T12:25:11.856Z,93581.81
2022-11-28T12:27:45.421Z,93581.47
2022-11-28T12:30:41.913Z,93575.56
2022-11-28T12:33:21.378Z,93573.56
2022-11-28T12:36:23.446Z,93573.31
2022-11-28T12:39:17.883Z,93581.22
2022-11-28T12:41:45.406Z,93573.78
2022-11-28T12:44:24.450Z,93589.81
2022-11-28T12:47:13.921Z,93587.66
2022-11-28T12:50:04.282Z,93586.44
2022-11-28T12:52:43.952Z,93592.09
2022-11-28T12:55:17.229Z,93589.78
2022-11-28T12:57:44.717Z,93585.91
2022-11-28T13:00:20.121Z,93595.47
2022-11-28T13:03:01.802Z,93591.50
2022-11-28T13:05:34.083Z,93595.59
2022-11-28T13:08:43.281Z,93589.56
2022-11-28T13:11:26.003Z,93596.47
2022-11-28T13:13:59.357Z,93596.31
2022-11-28T13:16:27.564Z,93596.94
2022-11-28T13:19:01.222Z,93597.03
2022-11-28T13:21:42.833Z,93596.69
2022-11-28T13:24:48.817Z,93605.84
2022-11-28T13:27:32.627Z,93602.69
2022-11-28T13:30:12.868Z,93596.75
2022-11-28T13:32:58.962Z,93599.59
2022-11-28T13:35:28.741Z,93603.25
2022-11-28T13:41:05.647Z,93599.50
2022-11-28T13:43:52.609Z,93613.41
2022-11-28T13:46:20.849Z,93604.19
2022-11-28T13:51:36.923Z,93606.84
2022-11-28T13:54:20.079Z,93610.72
2022-11-28T13:57:05.148Z,93614.63
2022-11-28T13:59:33.572Z,93608.97
2022-11-28T14:02:03.627Z,93607.81
2022-11-28T14:04:33.066Z,93611.34
2022-11-28T14:07:06.948Z,93597.59
2022-11-28T14:10:07.884Z,93600.44
2022-11-28T14:12:44.372Z,93595.72
2022-11-28T14:15:22.069Z,93606.37
2022-11-28T14:18:55.036Z,93604.31
2022-11-28T14:21:46.572Z,93609.06
2022-11-28T14:24:46.100Z,93626.38
2022-11-28T14:27:22.809Z,93623.16
2022-11-28T14:29:54.409Z,93620.19
2022-11-28T14:32:38.319Z,93615.97
2022-11-28T14:35:12.326Z,93612.00
2022-11-28T14:37:59.644Z,93614.63
2022-11-28T14:41:01.963Z,93616.75
2022-11-28T14:43:41.143Z,93607.59
2022-11-28T14:46:22.177Z,93614.34
2022-11-28T14:48:59.056Z,93612.44
2022-11-28T14:51:48.704Z,93610.41
2022-11-28T14:54:31.638Z,93626.50
2022-11-28T14:57:00.174Z,93626.06
2022-11-28T14:59:33.178Z,93625.69
2022-11-28T15:02:06.349Z,93625.72
2022-11-28T15:05:13.150Z,93618.31
2022-11-28T15:08:09.347Z,93621.56
2022-11-28T15:10:49.338Z,93616.72
2022-11-28T15:13:38.360Z,93621.75
2022-11-28T15:16:12.792Z,93613.37
2022-11-28T15:18:48.746Z,93614.16
2022-11-28T15:21:18.275Z,93620.00
2022-11-28T15:23:49.519Z,93620.38
2022-11-28T15:26:27.064Z,93612.78
2022-11-28T15:29:16.308Z,93608.53
2022-11-28T15:31:48.776Z,93615.47
2022-11-28T15:34:38.058Z,93609.97
2022-11-28T15:37:15.569Z,93599.69
2022-11-28T15:39:45.656Z,93603.16
2022-11-28T15:42:28.990Z,93600.25
2022-11-28T15:45:00.686Z,93609.56
2022-11-28T15:47:29.022Z,93611.34
2022-11-28T15:50:18.429Z,93606.28
2022-11-28T15:53:17.013Z,93616.47
2022-11-28T15:55:44.859Z,93616.72
2022-11-28T15:58:21.358Z,93611.22
2022-11-28T16:00:54.300Z,93609.13
2022-11-28T16:03:26.576Z,93608.66
2022-11-28T16:05:56.097Z,93609.28
2022-11-28T16:08:40.387Z,93605.69
2022-11-28T16:11:10.060Z,93609.75
2022-11-28T16:13:40.098Z,93609.84
2022-11-28T16:16:18.547Z,93609.66
2022-11-28T16:18:57.715Z,93610.62
2022-11-28T16:21:30.195Z,93606.81
2022-11-28T16:23:58.184Z,93606.13
2022-11-28T16:26:35.882Z,93609.53
2022-11-28T16:29:09.749Z,93598.13
2022-11-28T16:31:37.313Z,93598.72
2022-11-28T16:34:06.128Z,93600.56
2022-11-28T16:36:37.284Z,93597.47
2022-11-28T16:39:12.719Z,93596.44
2022-11-28T16:41:50.383Z,93593.97
2022-11-28T16:44:25.094Z,93593.78
2022-11-28T16:46:57.947Z,93593.84
2022-11-28T16:49:38.065Z,93599.19
2022-11-28T16:52:25.504Z,93596.44
2022-11-28T16:54:57.537Z,93585.50
2022-11-28T16:57:30.226Z,93592.16
2022-11-28T17:00:00.567Z,93594.78
2022-11-28T17:02:28.006Z,93595.94
2022-11-28T17:04:55.543Z,93592.19
2022-11-28T17:07:24.527Z,93595.19
2022-11-28T17:09:51.914Z,93601.34
2022-11-28T17:12:34.851Z,93594.09
2022-11-28T17:15:02.617Z,93594.34
2022-11-28T17:17:30.998Z,93588.38
2022-11-28T17:19:58.374Z,93588.25
2022-11-28T17:22:40.545Z,93576.53
2022-11-28T17:25:26.019Z,93577.72
2022-11-28T17:27:56.242Z,93575.13
2022-11-28T17:30:24.142Z,93578.03
2022-11-28T17:32:52.233Z,93581.38
2022-11-28T17:35:25.580Z,93580.56
2022-11-28T17:37:52.963Z,93579.56
2022-11-28T17:40:37.352Z,93572.94
2022-11-28T17:43:05.138Z,93572.75
2022-11-28T17:45:35.466Z,93574.16
2022-11-28T17:48:02.828Z,93565.97
2022-11-28T17:50:30.832Z,93563.84
2022-11-28T17:52:58.520Z,93565.03
2022-11-28T17:55:25.882Z,93564.62
2022-11-28T17:57:54.346Z,93568.19
2022-11-28T18:00:23.657Z,93558.72
2022-11-28T18:02:51.417Z,93568.09
2022-11-28T18:05:19.674Z,93558.72
2022-11-28T18:07:47.256Z,93558.06
2022-11-28T18:10:15.534Z,93568.66
2022-11-28T18:12:43.359Z,93568.53
2022-11-28T18:15:11.117Z,93555.19
2022-11-28T18:17:38.824Z,93556.94
2022-11-28T18:20:07.019Z,93550.66
2022-11-28T18:22:34.304Z,93557.06
2022-11-28T18:25:03.423Z,93561.22
2022-11-28T18:27:31.259Z,93552.22
2022-11-28T18:29:58.963Z,93552.78
2022-11-28T18:32:27.962Z,93551.00
2022-11-28T18:34:55.259Z,93554.69
2022-11-28T18:37:23.451Z,93554.38
2022-11-28T18:39:51.491Z,93555.59
2022-11-28T18:42:18.944Z,93561.75
2022-11-28T18:44:46.887Z,93560.53
2022-11-28T18:47:14.750Z,93554.25
2022-11-28T18:49:42.867Z,93561.16
2022-11-28T18:52:11.569Z,93560.09
2022-11-28T18:54:39.170Z,93559.38
2022-11-28T18:57:08.178Z,93557.16
2022-11-28T18:59:36.188Z,93546.94
2022-11-28T19:02:04.207Z,93548.59
2022-11-28T19:04:31.915Z,93545.97
2022-11-28T19:07:01.783Z,93549.91
2022-11-28T19:09:31.013Z,93548.41
2022-11-28T19:11:58.589Z,93552.41
2022-11-28T19:14:29.381Z,93549.00
2022-11-28T19:16:59.204Z,93547.84
2022-11-28T19:19:26.860Z,93558.81
2022-11-28T19:21:54.627Z,93554.25
2022-11-28T19:24:31.206Z,93552.66
2022-11-28T19:27:03.964Z,93552.47
2022-11-28T19:29:44.091Z,93552.00
2022-11-28T19:32:17.489Z,93548.75
2022-11-28T19:34:45.330Z,93545.97
2022-11-28T19:37:15.329Z,93555.69
2022-11-28T19:39:43.154Z,93555.75
2022-11-28T19:42:11.232Z,93555.59
2022-11-28T19:44:39.284Z,93548.59
2022-11-28T19:47:07.046Z,93547.47
2022-11-28T19:49:34.860Z,93556.62
2022-11-28T19:52:03.041Z,93561.72
2022-11-28T19:54:30.760Z,93556.62
2022-11-28T19:56:58.677Z,93558.16
2022-11-28T19:59:27.458Z,93563.09
2022-11-28T20:01:55.147Z,93566.19
2022-11-28T20:04:23.100Z,93562.56
2022-11-28T20:06:50.514Z,93570.28
2022-11-28T20:09:17.904Z,93564.97
2022-11-28T20:11:47.624Z,93573.56
2022-11-28T20:14:18.004Z,93567.75
2022-11-28T20:16:46.156Z,93571.16
2022-11-28T20:19:15.212Z,93569.81
2022-11-28T20:21:44.080Z,93573.56
2022-11-28T20:24:12.279Z,93571.88
2022-11-28T20:26:43.106Z,93572.94
2022-11-28T20:29:14.898Z,93574.00
2022-11-28T20:31:45.975Z,93570.78
2022-11-28T20:34:16.877Z,93561.37
2022-11-28T20:36:45.693Z,93562.25
2022-11-28T20:39:13.723Z,93563.94
2022-11-28T20:41:41.210Z,93569.56
2022-11-28T20:44:10.293Z,93565.84
2022-11-28T20:46:38.370Z,93567.53
2022-11-28T20:49:07.397Z,93560.50
2022-11-28T20:51:36.365Z,93564.19
2022-11-28T20:54:07.898Z,93566.19
2022-11-28T20:57:12.825Z,93568.78
2022-11-28T20:59:27.720Z,93569.44
2022-11-28T21:01:55.470Z,93566.34
2022-11-28T21:04:22.922Z,93572.66
2022-11-28T21:06:50.361Z,93565.69
2022-11-28T21:09:20.917Z,93571.78
2022-11-28T21:11:58.707Z,93567.66
2022-11-28T21:14:29.239Z,93579.25
2022-11-28T21:16:58.444Z,93572.94
2022-11-28T21:19:26.956Z,93577.97
2022-11-28T21:21:54.875Z,93569.13
2022-11-28T21:24:23.492Z,93567.03
2022-11-28T21:26:54.280Z,93571.97
2022-11-28T21:29:23.670Z,93569.25
2022-11-28T21:31:51.180Z,93566.50
2022-11-28T21:34:19.641Z,93577.84
2022-11-28T21:36:47.739Z,93575.44
2022-11-28T21:39:19.059Z,93576.41
2022-11-28T21:41:46.972Z,93575.06
2022-11-28T21:44:14.361Z,93574.25
2022-11-28T21:46:41.853Z,93572.97
2022-11-28T21:49:09.627Z,93568.78
2022-11-28T21:51:37.670Z,93572.22
2022-11-28T21:54:05.099Z,93571.00
2022-11-28T21:56:32.980Z,93568.28
2022-11-28T21:59:00.361Z,93576.41
2022-11-28T22:01:28.609Z,93567.59
2022-11-28T22:04:02.176Z,93564.03
2022-11-28T22:06:31.179Z,93568.03
2022-11-28T22:09:07.082Z,93563.66
2022-11-28T22:11:36.691Z,93563.41
2022-11-28T22:14:04.281Z,93560.16
2022-11-28T22:16:32.486Z,93547.22
2022-11-28T22:19:00.330Z,93555.47
2022-11-28T22:21:51.705Z,93552.56
2022-11-28T22:24:15.763Z,93553.94
2022-11-28T22:26:44.172Z,93552.19
2022-11-28T22:29:11.909Z,93549.53
2022-11-28T22:31:39.352Z,93547.78
2022-11-28T22:34:09.460Z,93546.81
2022-11-28T22:36:37.847Z,93540.31
2022-11-28T22:39:06.337Z,93542.63
2022-11-28T22:41:34.411Z,93538.22
2022-11-28T22:44:04.318Z,93538.00
2022-11-28T22:46:32.677Z,93529.81
2022-11-28T22:49:00.945Z,93534.97
2022-11-28T22:51:29.817Z,93530.19
2022-11-28T22:54:00.370Z,93533.03
2022-11-28T22:56:30.266Z,93526.19
2022-11-28T22:58:58.627Z,93521.19
2022-11-28T23:01:31.589Z,93521.38
2022-11-28T23:04:00.366Z,93520.88
2022-11-28T23:06:30.952Z,93520.69
2022-11-28T23:08:59.862Z,93521.25
2022-11-28T23:11:33.395Z,93523.97
2022-11-28T23:14:02.737Z,93516.75
2022-11-28T23:16:37.137Z,93512.19
2022-11-28T23:19:10.213Z,93514.16
2022-11-28T23:21:40.388Z,93513.28
2022-11-28T23:24:14.463Z,93504.12
2022-11-28T23:26:45.058Z,93506.94
2022-11-28T23:29:12.934Z,93501.91
2022-11-28T23:31:42.135Z,93502.38
2022-11-28T23:34:11.292Z,93499.31
2022-11-28T23:36:42.687Z,93500.13
2022-11-28T23:39:14.723Z,93497.09
2022-11-28T23:41:42.254Z,93492.56
2022-11-28T23:44:11.618Z,93488.94
2022-11-28T23:46:40.687Z,93500.50
2022-11-28T23:49:08.455Z,93483.75
2022-11-28T23:51:36.478Z,93485.59
2022-11-28T23:54:04.483Z,93491.56
2022-11-28T23:56:34.290Z,93483.28
2022-11-28T23:59:04.761Z,93479.75
